sensor_id;sensor_type;location;lat;lon;timestamp;pressure;altitude;pressure_sealevel;temperature
67353;BMP180;54238;52.278;21.056;2023-07-31T00:01:19;99840.20;;;20.20
67353;BMP180;54238;52.278;21.056;2023-07-31T00:03:49;99832.40;;;20.20
67353;BMP180;54238;52.278;21.056;2023-07-31T00:06:21;99833.00;;;20.20
67353;BMP180;54238;52.278;21.056;2023-07-31T00:08:48;99833.60;;;20.10
67353;BMP180;54238;52.278;21.056;2023-07-31T00:11:18;99836.40;;;20.10
67353;BMP180;54238;52.278;21.056;2023-07-31T00:13:49;99833.40;;;20.10
67353;BMP180;54238;52.278;21.056;2023-07-31T00:16:21;99832.00;;;20.06
67353;BMP180;54238;52.278;21.056;2023-07-31T00:18:48;99837.60;;;20.00
67353;BMP180;54238;52.278;21.056;2023-07-31T00:21:20;99842.80;;;20.00
67353;BMP180;54238;52.278;21.056;2023-07-31T00:23:52;99833.40;;;19.90
67353;BMP180;54238;52.278;21.056;2023-07-31T00:26:21;99836.40;;;19.90
67353;BMP180;54238;52.278;21.056;2023-07-31T00:28:48;99836.40;;;19.80
67353;BMP180;54238;52.278;21.056;2023-07-31T00:31:15;99838.80;;;19.80
67353;BMP180;54238;52.278;21.056;2023-07-31T00:33:42;99840.20;;;19.72
67353;BMP180;54238;52.278;21.056;2023-07-31T00:36:11;99835.00;;;19.70
67353;BMP180;54238;52.278;21.056;2023-07-31T00:38:38;99833.00;;;19.60
67353;BMP180;54238;52.278;21.056;2023-07-31T00:41:05;99836.40;;;19.60
67353;BMP180;54238;52.278;21.056;2023-07-31T00:43:37;99837.60;;;19.60
67353;BMP180;54238;52.278;21.056;2023-07-31T00:46:09;99830.60;;;19.50
67353;BMP180;54238;52.278;21.056;2023-07-31T00:48:39;99828.40;;;19.50
67353;BMP180;54238;52.278;21.056;2023-07-31T00:51:10;99825.00;;;19.50
67353;BMP180;54238;52.278;21.056;2023-07-31T00:53:41;99828.40;;;19.40
67353;BMP180;54238;52.278;21.056;2023-07-31T00:56:14;99830.00;;;19.40
67353;BMP180;54238;52.278;21.056;2023-07-31T00:58:42;99827.40;;;19.40
67353;BMP180;54238;52.278;21.056;2023-07-31T01:01:11;99823.40;;;19.30
67353;BMP180;54238;52.278;21.056;2023-07-31T01:03:41;99820.40;;;19.30
67353;BMP180;54238;52.278;21.056;2023-07-31T01:12:00;99826.20;;;19.30
67353;BMP180;54238;52.278;21.056;2023-07-31T01:14:28;99825.60;;;19.30
67353;BMP180;54238;52.278;21.056;2023-07-31T01:17:04;99829.20;;;19.28
67353;BMP180;54238;52.278;21.056;2023-07-31T01:19:36;99832.40;;;19.22
67353;BMP180;54238;52.278;21.056;2023-07-31T01:25:53;99837.40;;;19.20
67353;BMP180;54238;52.278;21.056;2023-07-31T01:31:23;99832.20;;;19.20
67353;BMP180;54238;52.278;21.056;2023-07-31T01:34:01;99830.40;;;19.18
67353;BMP180;54238;52.278;21.056;2023-07-31T01:36:35;99829.20;;;19.10
67353;BMP180;54238;52.278;21.056;2023-07-31T01:39:03;99828.00;;;19.10
67353;BMP180;54238;52.278;21.056;2023-07-31T01:41:34;99837.20;;;19.10
67353;BMP180;54238;52.278;21.056;2023-07-31T01:44:04;99837.80;;;19.10
67353;BMP180;54238;52.278;21.056;2023-07-31T01:46:36;99843.20;;;19.10
67353;BMP180;54238;52.278;21.056;2023-07-31T01:49:05;99843.40;;;19.00
67353;BMP180;54238;52.278;21.056;2023-07-31T01:51:35;99837.40;;;19.00
67353;BMP180;54238;52.278;21.056;2023-07-31T01:54:07;99840.80;;;19.00
67353;BMP180;54238;52.278;21.056;2023-07-31T01:56:36;99839.60;;;19.00
67353;BMP180;54238;52.278;21.056;2023-07-31T01:59:05;99833.20;;;18.90
67353;BMP180;54238;52.278;21.056;2023-07-31T02:01:33;99836.80;;;18.90
67353;BMP180;54238;52.278;21.056;2023-07-31T02:04:03;99840.80;;;18.90
67353;BMP180;54238;52.278;21.056;2023-07-31T02:06:36;99835.80;;;18.90
67353;BMP180;54238;52.278;21.056;2023-07-31T02:09:06;99842.80;;;18.84
67353;BMP180;54238;52.278;21.056;2023-07-31T02:11:33;99847.00;;;18.80
67353;BMP180;54238;52.278;21.056;2023-07-31T02:14:00;99848.40;;;18.80
67353;BMP180;54238;52.278;21.056;2023-07-31T02:16:27;99846.20;;;18.80
67353;BMP180;54238;52.278;21.056;2023-07-31T02:18:56;99841.40;;;18.80
67353;BMP180;54238;52.278;21.056;2023-07-31T02:21:23;99851.00;;;18.80
67353;BMP180;54238;52.278;21.056;2023-07-31T02:23:50;99849.40;;;18.80
67353;BMP180;54238;52.278;21.056;2023-07-31T02:26:22;99847.80;;;18.76
67353;BMP180;54238;52.278;21.056;2023-07-31T02:28:49;99852.80;;;18.70
67353;BMP180;54238;52.278;21.056;2023-07-31T02:31:18;99865.00;;;18.70
67353;BMP180;54238;52.278;21.056;2023-07-31T02:33:45;99863.40;;;18.70
67353;BMP180;54238;52.278;21.056;2023-07-31T02:36:15;99856.20;;;18.60
67353;BMP180;54238;52.278;21.056;2023-07-31T02:38:42;99860.60;;;18.60
67353;BMP180;54238;52.278;21.056;2023-07-31T02:41:11;99864.60;;;18.60
67353;BMP180;54238;52.278;21.056;2023-07-31T02:43:38;99861.80;;;18.52
67353;BMP180;54238;52.278;21.056;2023-07-31T02:46:05;99866.20;;;18.50
67353;BMP180;54238;52.278;21.056;2023-07-31T02:48:35;99870.80;;;18.50
67353;BMP180;54238;52.278;21.056;2023-07-31T02:51:02;99875.20;;;18.50
67353;BMP180;54238;52.278;21.056;2023-07-31T02:53:30;99872.20;;;18.50
67353;BMP180;54238;52.278;21.056;2023-07-31T02:55:57;99873.40;;;18.50
67353;BMP180;54238;52.278;21.056;2023-07-31T02:58:24;99860.40;;;18.50
67353;BMP180;54238;52.278;21.056;2023-07-31T03:00:53;99858.80;;;18.50
67353;BMP180;54238;52.278;21.056;2023-07-31T03:03:23;99864.20;;;18.50
67353;BMP180;54238;52.278;21.056;2023-07-31T03:05:50;99861.00;;;18.42
67353;BMP180;54238;52.278;21.056;2023-07-31T03:08:22;99865.60;;;18.40
67353;BMP180;54238;52.278;21.056;2023-07-31T03:10:53;99872.40;;;18.40
67353;BMP180;54238;52.278;21.056;2023-07-31T03:13:25;99868.40;;;18.40
67353;BMP180;54238;52.278;21.056;2023-07-31T03:15:57;99860.00;;;18.40
67353;BMP180;54238;52.278;21.056;2023-07-31T03:18:24;99853.20;;;18.40
67353;BMP180;54238;52.278;21.056;2023-07-31T03:20:58;99857.00;;;18.40
67353;BMP180;54238;52.278;21.056;2023-07-31T03:23:25;99863.00;;;18.42
67353;BMP180;54238;52.278;21.056;2023-07-31T03:26:02;99866.20;;;18.46
67353;BMP180;54238;52.278;21.056;2023-07-31T03:28:34;99865.80;;;18.50
67353;BMP180;54238;52.278;21.056;2023-07-31T03:31:01;99858.80;;;18.50
67353;BMP180;54238;52.278;21.056;2023-07-31T03:33:31;99858.20;;;18.50
67353;BMP180;54238;52.278;21.056;2023-07-31T03:36:01;99865.40;;;18.50
67353;BMP180;54238;52.278;21.056;2023-07-31T03:38:31;99874.40;;;18.50
67353;BMP180;54238;52.278;21.056;2023-07-31T03:41:01;99872.20;;;18.50
67353;BMP180;54238;52.278;21.056;2023-07-31T03:43:33;99876.60;;;18.50
67353;BMP180;54238;52.278;21.056;2023-07-31T03:46:03;99879.60;;;18.60
67353;BMP180;54238;52.278;21.056;2023-07-31T03:48:36;99878.80;;;18.60
67353;BMP180;54238;52.278;21.056;2023-07-31T03:51:08;99880.00;;;18.60
67353;BMP180;54238;52.278;21.056;2023-07-31T03:53:40;99884.40;;;18.60
67353;BMP180;54238;52.278;21.056;2023-07-31T03:56:12;99888.20;;;18.60
67353;BMP180;54238;52.278;21.056;2023-07-31T03:58:39;99890.40;;;18.60
67353;BMP180;54238;52.278;21.056;2023-07-31T04:01:07;99894.80;;;18.60
67353;BMP180;54238;52.278;21.056;2023-07-31T04:03:38;99890.00;;;18.60
67353;BMP180;54238;52.278;21.056;2023-07-31T04:06:05;99893.40;;;18.60
67353;BMP180;54238;52.278;21.056;2023-07-31T04:08:34;99899.60;;;18.60
67353;BMP180;54238;52.278;21.056;2023-07-31T04:11:01;99904.20;;;18.60
67353;BMP180;54238;52.278;21.056;2023-07-31T04:13:29;99906.00;;;18.60
67353;BMP180;54238;52.278;21.056;2023-07-31T04:15:57;99905.60;;;18.60
67353;BMP180;54238;52.278;21.056;2023-07-31T04:18:27;99908.40;;;18.60
67353;BMP180;54238;52.278;21.056;2023-07-31T04:20:58;99909.20;;;18.60
67353;BMP180;54238;52.278;21.056;2023-07-31T04:23:30;99914.60;;;18.60
67353;BMP180;54238;52.278;21.056;2023-07-31T04:25:57;99914.60;;;18.60
67353;BMP180;54238;52.278;21.056;2023-07-31T04:28:28;99914.60;;;18.60
67353;BMP180;54238;52.278;21.056;2023-07-31T04:30:58;99914.80;;;18.60
67353;BMP180;54238;52.278;21.056;2023-07-31T04:33:30;99910.40;;;18.58
67353;BMP180;54238;52.278;21.056;2023-07-31T04:36:00;99916.40;;;18.60
67353;BMP180;54238;52.278;21.056;2023-07-31T04:38:29;99916.20;;;18.60
67353;BMP180;54238;52.278;21.056;2023-07-31T04:41:00;99924.40;;;18.60
67353;BMP180;54238;52.278;21.056;2023-07-31T04:43:33;99926.00;;;18.60
67353;BMP180;54238;52.278;21.056;2023-07-31T04:46:00;99927.40;;;18.60
67353;BMP180;54238;52.278;21.056;2023-07-31T04:48:32;99932.00;;;18.68
67353;BMP180;54238;52.278;21.056;2023-07-31T04:50:59;99930.40;;;18.60
67353;BMP180;54238;52.278;21.056;2023-07-31T04:53:33;99930.80;;;18.66
67353;BMP180;54238;52.278;21.056;2023-07-31T04:56:03;99927.80;;;18.66
67353;BMP180;54238;52.278;21.056;2023-07-31T04:58:30;99925.80;;;18.70
67353;BMP180;54238;52.278;21.056;2023-07-31T05:01:00;99921.40;;;18.70
67353;BMP180;54238;52.278;21.056;2023-07-31T05:03:27;99926.00;;;18.70
67353;BMP180;54238;52.278;21.056;2023-07-31T05:05:56;99924.80;;;18.70
67353;BMP180;54238;52.278;21.056;2023-07-31T05:08:26;99924.60;;;18.70
67353;BMP180;54238;52.278;21.056;2023-07-31T05:11:02;99925.00;;;18.78
67353;BMP180;54238;52.278;21.056;2023-07-31T05:13:29;99930.60;;;18.80
67353;BMP180;54238;52.278;21.056;2023-07-31T05:16:01;99930.00;;;18.80
67353;BMP180;54238;52.278;21.056;2023-07-31T05:18:32;99929.00;;;18.80
67353;BMP180;54238;52.278;21.056;2023-07-31T05:20:59;99932.60;;;18.90
67353;BMP180;54238;52.278;21.056;2023-07-31T05:23:29;99935.40;;;18.90
67353;BMP180;54238;52.278;21.056;2023-07-31T05:26:06;99943.20;;;18.90
67353;BMP180;54238;52.278;21.056;2023-07-31T05:28:36;99939.80;;;19.00
67353;BMP180;54238;52.278;21.056;2023-07-31T05:31:04;99939.80;;;19.00
67353;BMP180;54238;52.278;21.056;2023-07-31T05:33:32;99941.20;;;19.00
67353;BMP180;54238;52.278;21.056;2023-07-31T05:36:04;99944.00;;;19.00
67353;BMP180;54238;52.278;21.056;2023-07-31T05:38:31;99943.60;;;19.04
67353;BMP180;54238;52.278;21.056;2023-07-31T05:40:59;99951.20;;;19.10
67353;BMP180;54238;52.278;21.056;2023-07-31T05:43:28;99949.00;;;19.10
67353;BMP180;54238;52.278;21.056;2023-07-31T05:45:59;99946.40;;;19.10
67353;BMP180;54238;52.278;21.056;2023-07-31T05:48:33;99957.60;;;19.10
67353;BMP180;54238;52.278;21.056;2023-07-31T05:51:06;99954.60;;;19.10
67353;BMP180;54238;52.278;21.056;2023-07-31T05:53:34;99955.40;;;19.10
67353;BMP180;54238;52.278;21.056;2023-07-31T05:56:03;99955.20;;;19.10
67353;BMP180;54238;52.278;21.056;2023-07-31T05:58:37;99959.80;;;19.10
67353;BMP180;54238;52.278;21.056;2023-07-31T06:01:05;99975.60;;;19.10
67353;BMP180;54238;52.278;21.056;2023-07-31T06:03:31;99976.00;;;19.10
67353;BMP180;54238;52.278;21.056;2023-07-31T06:06:01;99973.20;;;19.10
67353;BMP180;54238;52.278;21.056;2023-07-31T06:08:31;99975.00;;;19.10
67353;BMP180;54238;52.278;21.056;2023-07-31T06:11:00;99976.60;;;19.10
67353;BMP180;54238;52.278;21.056;2023-07-31T06:13:29;99979.80;;;19.20
67353;BMP180;54238;52.278;21.056;2023-07-31T06:15:59;99985.20;;;19.20
67353;BMP180;54238;52.278;21.056;2023-07-31T06:18:26;99984.40;;;19.20
67353;BMP180;54238;52.278;21.056;2023-07-31T06:20:56;99987.00;;;19.20
67353;BMP180;54238;52.278;21.056;2023-07-31T06:23:27;99986.00;;;19.24
67353;BMP180;54238;52.278;21.056;2023-07-31T06:25:54;99984.00;;;19.20
67353;BMP180;54238;52.278;21.056;2023-07-31T06:28:29;99983.20;;;19.20
67353;BMP180;54238;52.278;21.056;2023-07-31T06:30:59;99989.00;;;19.20
67353;BMP180;54238;52.278;21.056;2023-07-31T06:33:28;99991.20;;;19.20
67353;BMP180;54238;52.278;21.056;2023-07-31T06:35:58;99987.00;;;19.20
67353;BMP180;54238;52.278;21.056;2023-07-31T06:38:27;99984.60;;;19.20
67353;BMP180;54238;52.278;21.056;2023-07-31T06:40:57;99984.20;;;19.20
67353;BMP180;54238;52.278;21.056;2023-07-31T06:43:28;99988.80;;;19.10
67353;BMP180;54238;52.278;21.056;2023-07-31T06:45:55;99991.00;;;19.08
67353;BMP180;54238;52.278;21.056;2023-07-31T06:48:27;99999.40;;;19.00
67353;BMP180;54238;52.278;21.056;2023-07-31T06:50:54;99998.00;;;18.96
67353;BMP180;54238;52.278;21.056;2023-07-31T06:53:24;99992.40;;;18.90
67353;BMP180;54238;52.278;21.056;2023-07-31T06:55:59;99994.60;;;18.90
67353;BMP180;54238;52.278;21.056;2023-07-31T06:58:28;99997.60;;;19.00
67353;BMP180;54238;52.278;21.056;2023-07-31T07:00:58;100001.20;;;19.00
67353;BMP180;54238;52.278;21.056;2023-07-31T07:03:29;100000.20;;;19.00
67353;BMP180;54238;52.278;21.056;2023-07-31T07:05:59;99995.60;;;19.00
67353;BMP180;54238;52.278;21.056;2023-07-31T07:08:32;99995.80;;;19.00
67353;BMP180;54238;52.278;21.056;2023-07-31T07:11:01;100000.00;;;19.08
67353;BMP180;54238;52.278;21.056;2023-07-31T07:13:27;100001.20;;;19.10
67353;BMP180;54238;52.278;21.056;2023-07-31T07:15:57;99996.00;;;19.10
67353;BMP180;54238;52.278;21.056;2023-07-31T07:18:24;100001.60;;;19.10
67353;BMP180;54238;52.278;21.056;2023-07-31T07:20:56;100002.40;;;19.18
67353;BMP180;54238;52.278;21.056;2023-07-31T07:23:25;99998.00;;;19.22
67353;BMP180;54238;52.278;21.056;2023-07-31T07:25:55;100002.00;;;19.40
67353;BMP180;54238;52.278;21.056;2023-07-31T07:28:25;100005.60;;;19.60
67353;BMP180;54238;52.278;21.056;2023-07-31T07:30:55;99996.00;;;19.70
67353;BMP180;54238;52.278;21.056;2023-07-31T07:33:22;100002.60;;;19.80
67353;BMP180;54238;52.278;21.056;2023-07-31T07:35:51;100000.80;;;19.94
67353;BMP180;54238;52.278;21.056;2023-07-31T07:38:18;99997.60;;;20.10
67353;BMP180;54238;52.278;21.056;2023-07-31T07:40:46;99995.60;;;20.20
67353;BMP180;54238;52.278;21.056;2023-07-31T07:43:17;99988.20;;;20.30
67353;BMP180;54238;52.278;21.056;2023-07-31T07:45:46;99998.20;;;20.50
67353;BMP180;54238;52.278;21.056;2023-07-31T07:48:15;99993.40;;;20.60
67353;BMP180;54238;52.278;21.056;2023-07-31T07:50:44;99989.80;;;20.70
67353;BMP180;54238;52.278;21.056;2023-07-31T07:53:11;99988.80;;;20.90
67353;BMP180;54238;52.278;21.056;2023-07-31T07:55:40;99990.60;;;21.00
67353;BMP180;54238;52.278;21.056;2023-07-31T07:58:10;99996.20;;;21.10
67353;BMP180;54238;52.278;21.056;2023-07-31T08:00:37;100004.60;;;21.20
67353;BMP180;54238;52.278;21.056;2023-07-31T08:03:05;99997.80;;;21.20
67353;BMP180;54238;52.278;21.056;2023-07-31T08:05:35;100002.80;;;21.22
67353;BMP180;54238;52.278;21.056;2023-07-31T08:08:02;99994.20;;;21.30
67353;BMP180;54238;52.278;21.056;2023-07-31T08:10:33;99996.00;;;21.40
67353;BMP180;54238;52.278;21.056;2023-07-31T08:13:00;99998.60;;;21.50
67353;BMP180;54238;52.278;21.056;2023-07-31T08:15:27;99997.00;;;21.60
67353;BMP180;54238;52.278;21.056;2023-07-31T08:17:56;99988.80;;;21.60
67353;BMP180;54238;52.278;21.056;2023-07-31T08:20:23;99989.00;;;21.70
67353;BMP180;54238;52.278;21.056;2023-07-31T08:22:55;99988.80;;;21.78
67353;BMP180;54238;52.278;21.056;2023-07-31T08:25:23;99988.20;;;21.84
67353;BMP180;54238;52.278;21.056;2023-07-31T08:27:53;99983.20;;;21.90
67353;BMP180;54238;52.278;21.056;2023-07-31T08:30:21;99990.60;;;22.00
67353;BMP180;54238;52.278;21.056;2023-07-31T08:32:51;99991.20;;;22.10
67353;BMP180;54238;52.278;21.056;2023-07-31T08:35:26;99994.00;;;22.20
67353;BMP180;54238;52.278;21.056;2023-07-31T08:37:57;99991.40;;;22.30
67353;BMP180;54238;52.278;21.056;2023-07-31T08:40:29;99992.80;;;22.40
67353;BMP180;54238;52.278;21.056;2023-07-31T08:43:01;99994.80;;;22.40
67353;BMP180;54238;52.278;21.056;2023-07-31T08:45:31;99990.60;;;22.50
67353;BMP180;54238;52.278;21.056;2023-07-31T08:48:01;99984.60;;;22.60
67353;BMP180;54238;52.278;21.056;2023-07-31T08:50:28;99984.20;;;22.68
67353;BMP180;54238;52.278;21.056;2023-07-31T08:53:00;99980.80;;;22.80
67353;BMP180;54238;52.278;21.056;2023-07-31T08:55:30;99980.00;;;23.00
67353;BMP180;54238;52.278;21.056;2023-07-31T08:57:58;99985.80;;;23.20
67353;BMP180;54238;52.278;21.056;2023-07-31T09:00:26;99991.20;;;23.30
67353;BMP180;54238;52.278;21.056;2023-07-31T09:03:03;99994.20;;;23.40
67353;BMP180;54238;52.278;21.056;2023-07-31T09:05:33;99984.40;;;23.40
67353;BMP180;54238;52.278;21.056;2023-07-31T09:08:04;99995.80;;;23.50
67353;BMP180;54238;52.278;21.056;2023-07-31T09:10:34;99999.00;;;23.60
67353;BMP180;54238;52.278;21.056;2023-07-31T09:13:05;99996.00;;;23.70
67353;BMP180;54238;52.278;21.056;2023-07-31T09:15:36;99997.00;;;23.74
67353;BMP180;54238;52.278;21.056;2023-07-31T09:18:07;99991.40;;;23.80
67353;BMP180;54238;52.278;21.056;2023-07-31T09:20:36;99989.60;;;23.90
67353;BMP180;54238;52.278;21.056;2023-07-31T09:23:11;100002.20;;;24.00
67353;BMP180;54238;52.278;21.056;2023-07-31T09:25:42;99998.00;;;24.10
67353;BMP180;54238;52.278;21.056;2023-07-31T09:28:13;99990.60;;;24.10
67353;BMP180;54238;52.278;21.056;2023-07-31T09:30:47;99996.80;;;24.10
67353;BMP180;54238;52.278;21.056;2023-07-31T09:33:19;99999.40;;;24.10
67353;BMP180;54238;52.278;21.056;2023-07-31T09:35:47;99998.20;;;24.20
67353;BMP180;54238;52.278;21.056;2023-07-31T09:38:18;99990.40;;;24.24
67353;BMP180;54238;52.278;21.056;2023-07-31T09:40:48;99987.20;;;24.32
67353;BMP180;54238;52.278;21.056;2023-07-31T09:43:20;99986.00;;;24.50
67353;BMP180;54238;52.278;21.056;2023-07-31T09:45:57;99991.20;;;24.60
67353;BMP180;54238;52.278;21.056;2023-07-31T09:48:25;99981.20;;;24.80
67353;BMP180;54238;52.278;21.056;2023-07-31T09:50:55;99992.80;;;24.90
67353;BMP180;54238;52.278;21.056;2023-07-31T09:53:31;99997.60;;;25.00
67353;BMP180;54238;52.278;21.056;2023-07-31T09:56:01;100003.20;;;24.96
67353;BMP180;54238;52.278;21.056;2023-07-31T09:58:34;100000.40;;;24.70
67353;BMP180;54238;52.278;21.056;2023-07-31T10:01:03;99999.40;;;24.50
67353;BMP180;54238;52.278;21.056;2023-07-31T10:03:33;99996.60;;;24.30
67353;BMP180;54238;52.278;21.056;2023-07-31T10:06:02;99996.60;;;24.34
67353;BMP180;54238;52.278;21.056;2023-07-31T10:08:35;99997.40;;;24.40
67353;BMP180;54238;52.278;21.056;2023-07-31T10:11:07;99997.00;;;24.40
67353;BMP180;54238;52.278;21.056;2023-07-31T10:13:39;99991.60;;;24.56
67353;BMP180;54238;52.278;21.056;2023-07-31T10:16:11;99987.80;;;24.70
67353;BMP180;54238;52.278;21.056;2023-07-31T10:18:39;99982.60;;;24.90
67353;BMP180;54238;52.278;21.056;2023-07-31T10:21:11;99999.20;;;25.10
67353;BMP180;54238;52.278;21.056;2023-07-31T10:23:42;99988.80;;;25.10
67353;BMP180;54238;52.278;21.056;2023-07-31T10:26:13;99995.60;;;25.18
67353;BMP180;54238;52.278;21.056;2023-07-31T10:28:46;100001.00;;;25.40
67353;BMP180;54238;52.278;21.056;2023-07-31T10:31:14;99994.60;;;25.36
67353;BMP180;54238;52.278;21.056;2023-07-31T10:33:42;99990.20;;;25.28
67353;BMP180;54238;52.278;21.056;2023-07-31T10:36:20;99983.40;;;25.40
67353;BMP180;54238;52.278;21.056;2023-07-31T10:38:50;99982.80;;;25.60
67353;BMP180;54238;52.278;21.056;2023-07-31T10:41:30;99986.00;;;25.92
67353;BMP180;54238;52.278;21.056;2023-07-31T10:44:03;99984.40;;;26.16
67353;BMP180;54238;52.278;21.056;2023-07-31T10:46:32;99989.60;;;26.38
67353;BMP180;54238;52.278;21.056;2023-07-31T10:49:03;99985.80;;;26.20
67353;BMP180;54238;52.278;21.056;2023-07-31T10:51:35;99986.40;;;26.20
67353;BMP180;54238;52.278;21.056;2023-07-31T10:54:16;99986.40;;;26.24
67353;BMP180;54238;52.278;21.056;2023-07-31T10:56:50;99987.40;;;26.46
67353;BMP180;54238;52.278;21.056;2023-07-31T10:59:34;99984.40;;;26.70
67353;BMP180;54238;52.278;21.056;2023-07-31T11:02:01;99984.00;;;27.00
67353;BMP180;54238;52.278;21.056;2023-07-31T11:04:35;99984.80;;;27.28
67353;BMP180;54238;52.278;21.056;2023-07-31T11:07:12;99982.20;;;27.52
67353;BMP180;54238;52.278;21.056;2023-07-31T11:09:40;99978.80;;;27.70
67353;BMP180;54238;52.278;21.056;2023-07-31T11:12:10;99990.40;;;27.70
67353;BMP180;54238;52.278;21.056;2023-07-31T11:14:42;99990.20;;;27.60
67353;BMP180;54238;52.278;21.056;2023-07-31T11:17:09;99994.40;;;27.58
67353;BMP180;54238;52.278;21.056;2023-07-31T11:19:39;99989.40;;;27.50
67353;BMP180;54238;52.278;21.056;2023-07-31T11:22:08;99976.40;;;27.50
67353;BMP180;54238;52.278;21.056;2023-07-31T11:24:35;99992.00;;;27.50
67353;BMP180;54238;52.278;21.056;2023-07-31T11:27:10;99984.00;;;27.50
67353;BMP180;54238;52.278;21.056;2023-07-31T11:29:41;99989.40;;;27.50
67353;BMP180;54238;52.278;21.056;2023-07-31T11:32:19;99983.60;;;27.54
67353;BMP180;54238;52.278;21.056;2023-07-31T11:34:53;99985.40;;;27.70
67353;BMP180;54238;52.278;21.056;2023-07-31T11:37:39;99994.60;;;27.72
67353;BMP180;54238;52.278;21.056;2023-07-31T11:40:10;99993.40;;;27.56
67353;BMP180;54238;52.278;21.056;2023-07-31T11:42:40;99988.60;;;27.30
67353;BMP180;54238;52.278;21.056;2023-07-31T11:45:11;99989.20;;;27.16
67353;BMP180;54238;52.278;21.056;2023-07-31T11:47:38;99985.80;;;27.10
67353;BMP180;54238;52.278;21.056;2023-07-31T11:50:10;99988.60;;;27.00
67353;BMP180;54238;52.278;21.056;2023-07-31T11:52:48;99977.20;;;26.74
67353;BMP180;54238;52.278;21.056;2023-07-31T11:55:21;99983.60;;;26.50
67353;BMP180;54238;52.278;21.056;2023-07-31T11:57:51;99973.20;;;26.30
67353;BMP180;54238;52.278;21.056;2023-07-31T12:00:19;99975.60;;;26.30
67353;BMP180;54238;52.278;21.056;2023-07-31T12:02:52;99973.00;;;26.20
67353;BMP180;54238;52.278;21.056;2023-07-31T12:05:22;99968.40;;;26.00
67353;BMP180;54238;52.278;21.056;2023-07-31T12:07:54;99971.80;;;25.96
67353;BMP180;54238;52.278;21.056;2023-07-31T12:10:33;99976.20;;;25.80
67353;BMP180;54238;52.278;21.056;2023-07-31T12:13:07;99975.20;;;25.60
67353;BMP180;54238;52.278;21.056;2023-07-31T12:15:44;99969.60;;;25.60
67353;BMP180;54238;52.278;21.056;2023-07-31T12:18:15;99970.40;;;25.70
67353;BMP180;54238;52.278;21.056;2023-07-31T12:20:46;99972.40;;;25.60
67353;BMP180;54238;52.278;21.056;2023-07-31T12:23:25;99967.40;;;25.50
67353;BMP180;54238;52.278;21.056;2023-07-31T12:28:46;99962.40;;;25.40
67353;BMP180;54238;52.278;21.056;2023-07-31T12:31:19;99957.20;;;25.40
67353;BMP180;54238;52.278;21.056;2023-07-31T12:33:51;99962.40;;;25.30
67353;BMP180;54238;52.278;21.056;2023-07-31T12:36:23;99961.60;;;25.10
67353;BMP180;54238;52.278;21.056;2023-07-31T12:38:56;99952.20;;;25.00
67353;BMP180;54238;52.278;21.056;2023-07-31T12:41:28;99947.00;;;25.00
67353;BMP180;54238;52.278;21.056;2023-07-31T12:43:58;99946.80;;;25.00
67353;BMP180;54238;52.278;21.056;2023-07-31T12:46:30;99946.00;;;24.90
67353;BMP180;54238;52.278;21.056;2023-07-31T12:48:57;99936.00;;;24.90
67353;BMP180;54238;52.278;21.056;2023-07-31T12:51:26;99946.40;;;24.90
67353;BMP180;54238;52.278;21.056;2023-07-31T12:54:00;99940.40;;;24.84
67353;BMP180;54238;52.278;21.056;2023-07-31T12:56:31;99937.60;;;24.80
67353;BMP180;54238;52.278;21.056;2023-07-31T12:58:58;99928.40;;;24.88
67353;BMP180;54238;52.278;21.056;2023-07-31T13:01:27;99924.00;;;24.96
67353;BMP180;54238;52.278;21.056;2023-07-31T13:03:57;99929.20;;;25.16
67353;BMP180;54238;52.278;21.056;2023-07-31T13:06:27;99917.40;;;25.40
67353;BMP180;54238;52.278;21.056;2023-07-31T13:08:56;99917.60;;;25.74
67353;BMP180;54238;52.278;21.056;2023-07-31T13:11:23;99924.40;;;26.06
67353;BMP180;54238;52.278;21.056;2023-07-31T13:13:50;99911.40;;;26.28
67353;BMP180;54238;52.278;21.056;2023-07-31T13:16:20;99907.40;;;26.56
67353;BMP180;54238;52.278;21.056;2023-07-31T13:18:54;99902.20;;;26.92
67353;BMP180;54238;52.278;21.056;2023-07-31T13:21:26;99907.20;;;27.32
67353;BMP180;54238;52.278;21.056;2023-07-31T13:23:55;99903.80;;;27.60
67353;BMP180;54238;52.278;21.056;2023-07-31T13:26:26;99901.20;;;27.66
67353;BMP180;54238;52.278;21.056;2023-07-31T13:28:58;99893.00;;;28.00
67353;BMP180;54238;52.278;21.056;2023-07-31T13:31:25;99894.80;;;28.40
67353;BMP180;54238;52.278;21.056;2023-07-31T13:33:57;99894.60;;;28.70
67353;BMP180;54238;52.278;21.056;2023-07-31T13:36:27;99900.00;;;28.96
67353;BMP180;54238;52.278;21.056;2023-07-31T13:38:54;99902.60;;;29.00
67353;BMP180;54238;52.278;21.056;2023-07-31T13:41:26;99906.20;;;28.58
67353;BMP180;54238;52.278;21.056;2023-07-31T13:43:55;99899.80;;;28.10
67353;BMP180;54238;52.278;21.056;2023-07-31T13:46:22;99893.60;;;27.90
67353;BMP180;54238;52.278;21.056;2023-07-31T13:48:52;99896.00;;;28.00
67353;BMP180;54238;52.278;21.056;2023-07-31T13:51:27;99894.40;;;28.26
67353;BMP180;54238;52.278;21.056;2023-07-31T13:53:55;99896.00;;;28.50
67353;BMP180;54238;52.278;21.056;2023-07-31T13:56:24;99895.20;;;28.50
67353;BMP180;54238;52.278;21.056;2023-07-31T13:58:51;99897.40;;;28.80
67353;BMP180;54238;52.278;21.056;2023-07-31T14:01:20;99900.80;;;28.70
67353;BMP180;54238;52.278;21.056;2023-07-31T14:03:53;99899.60;;;28.56
67353;BMP180;54238;52.278;21.056;2023-07-31T14:06:22;99895.80;;;28.06
67353;BMP180;54238;52.278;21.056;2023-07-31T14:08:52;99883.20;;;27.80
67353;BMP180;54238;52.278;21.056;2023-07-31T14:11:24;99890.20;;;27.88
67353;BMP180;54238;52.278;21.056;2023-07-31T14:13:53;99890.20;;;27.90
67353;BMP180;54238;52.278;21.056;2023-07-31T14:16:21;99892.40;;;27.70
67353;BMP180;54238;52.278;21.056;2023-07-31T14:18:49;99893.00;;;27.38
67353;BMP180;54238;52.278;21.056;2023-07-31T14:21:16;99883.80;;;27.04
67353;BMP180;54238;52.278;21.056;2023-07-31T14:23:43;99894.60;;;26.72
67353;BMP180;54238;52.278;21.056;2023-07-31T14:26:10;99877.60;;;26.40
67353;BMP180;54238;52.278;21.056;2023-07-31T14:28:44;99889.40;;;26.20